Time,TemperatureF,DewpointF,PressureIn,WindDirection,WindDirectionDegrees,WindSpeedMPH,WindSpeedGustMPH,Humidity,HourlyPrecipIn,Conditions,Clouds,dailyrainin,SolarRadiationWatts/m^2,SoftwareType,DateUTC
2013-07-23 00:01:00,56.0,52.0,-100.00,NNE,31,8.0,22.0,87,0.00,,,0.00,3.100000,,2013-07-23 08:01:00,
2013-07-23 00:11:00,56.0,52.0,-100.00,NNE,31,8.0,22.0,87,0.00,,,0.00,3.100000,,2013-07-23 08:11:00,
2013-07-23 00:21:00,56.0,52.0,-100.00,NNE,31,8.0,22.0,87,0.00,,,0.00,3.100000,,2013-07-23 08:21:00,
2013-07-23 00:52:00,56.0,50.0,-100.00,NE,38,5.0,22.0,78,0.00,,,0.00,0.800000,,2013-07-23 08:52:00,
2013-07-23 01:01:00,56.0,50.0,-100.00,NE,38,5.0,22.0,78,0.00,,,0.00,0.800000,,2013-07-23 09:01:00,
2013-07-23 01:11:00,56.0,50.0,-100.00,NE,38,5.0,22.0,78,0.00,,,0.00,0.800000,,2013-07-23 09:11:00,
2013-07-23 01:22:00,56.0,50.0,-100.00,NE,38,5.0,22.0,78,0.00,,,0.00,0.800000,,2013-07-23 09:22:00,
2013-07-23 01:53:00,56.0,50.0,-100.00,North,11,4.0,11.0,79,0.00,,,0.00,0.800000,,2013-07-23 09:53:00,
2013-07-23 02:01:00,56.0,50.0,-100.00,North,11,4.0,11.0,79,0.00,,,0.00,0.800000,,2013-07-23 10:01:00,
2013-07-23 02:11:00,56.0,50.0,-100.00,North,11,4.0,11.0,79,0.00,,,0.00,0.800000,,2013-07-23 10:11:00,
2013-07-23 02:21:00,56.0,50.0,-100.00,North,11,4.0,11.0,79,0.00,,,0.00,0.800000,,2013-07-23 10:21:00,
2013-07-23 02:52:00,56.0,53.0,-100.00,East,98,0.0,11.0,90,0.00,,,0.00,0.800000,,2013-07-23 10:52:00,
2013-07-23 03:01:00,56.0,53.0,-100.00,East,98,0.0,11.0,90,0.00,,,0.00,0.800000,,2013-07-23 11:01:00,
2013-07-23 03:11:00,56.0,53.0,-100.00,East,98,0.0,11.0,90,0.00,,,0.00,0.800000,,2013-07-23 11:11:00,
2013-07-23 03:21:00,56.0,53.0,-100.00,East,98,0.0,11.0,90,0.00,,,0.00,0.800000,,2013-07-23 11:21:00,
2013-07-23 03:52:00,55.0,53.0,-100.00,ENE,65,0.0,4.0,95,0.00,,,0.00,0.800000,,2013-07-23 11:52:00,
2013-07-23 04:02:00,55.0,53.0,-100.00,ENE,65,0.0,4.0,95,0.00,,,0.00,0.800000,,2013-07-23 12:02:00,
2013-07-23 04:11:00,55.0,53.0,-100.00,ENE,65,0.0,4.0,95,0.00,,,0.00,0.800000,,2013-07-23 12:11:00,
2013-07-23 04:22:00,55.0,53.0,-100.00,ENE,65,0.0,4.0,95,0.00,,,0.00,0.800000,,2013-07-23 12:22:00,
2013-07-23 05:01:00,54.0,50.0,-100.00,SW,221,0.0,3.0,84,0.00,,,0.00,0.800000,,2013-07-23 13:01:00,
2013-07-23 05:11:00,54.0,50.0,-100.00,SW,221,0.0,3.0,84,0.00,,,0.00,0.800000,,2013-07-23 13:11:00,
2013-07-23 05:22:00,54.0,50.0,-100.00,SW,221,0.0,3.0,84,0.00,,,0.00,0.800000,,2013-07-23 13:22:00,
2013-07-23 05:52:00,54.0,52.0,-100.00,South,176,2.0,0.0,93,0.00,,,0.00,2.200000,,2013-07-23 13:52:00,
2013-07-23 06:02:00,54.0,52.0,-100.00,South,176,2.0,0.0,93,0.00,,,0.00,2.200000,,2013-07-23 14:02:00,
2013-07-23 06:12:00,54.0,52.0,-100.00,South,176,2.0,0.0,93,0.00,,,0.00,2.200000,,2013-07-23 14:12:00,
2013-07-23 06:22:00,54.0,52.0,-100.00,South,176,2.0,0.0,93,0.00,,,0.00,2.200000,,2013-07-23 14:22:00,
2013-07-23 06:53:00,54.0,51.0,-100.00,East,81,1.0,5.0,90,0.00,,,0.00,27.400000,,2013-07-23 14:53:00,
2013-07-23 07:03:00,54.0,51.0,-100.00,East,81,1.0,5.0,90,0.00,,,0.00,27.400000,,2013-07-23 15:03:00,
2013-07-23 07:11:00,54.0,51.0,-100.00,East,81,1.0,5.0,90,0.00,,,0.00,27.400000,,2013-07-23 15:11:00,
2013-07-23 07:24:00,54.0,51.0,-100.00,East,81,1.0,5.0,90,0.00,,,0.00,27.400000,,2013-07-23 15:24:00,
2013-07-23 07:52:00,56.0,53.0,-100.00,East,89,2.0,3.0,90,0.00,,,0.00,117.599998,,2013-07-23 15:52:00,
2013-07-23 08:01:00,56.0,53.0,-100.00,East,89,2.0,3.0,90,0.00,,,0.00,117.599998,,2013-07-23 16:01:00,
2013-07-23 08:12:00,56.0,53.0,-100.00,East,89,2.0,3.0,90,0.00,,,0.00,117.599998,,2013-07-23 16:12:00,
2013-07-23 08:22:00,56.0,53.0,-100.00,East,89,2.0,3.0,90,0.00,,,0.00,117.599998,,2013-07-23 16:22:00,
2013-07-23 09:56:00,58.0,53.0,-100.00,NW,304,2.0,10.0,85,-99.99,,,0.00,334.500000,,2013-07-23 17:56:00,
2013-07-23 10:02:00,58.0,53.0,-100.00,NW,304,2.0,10.0,85,-99.99,,,0.00,334.500000,,2013-07-23 18:02:00,
2013-07-23 10:11:00,58.0,53.0,-100.00,NW,304,2.0,10.0,85,-99.99,,,0.00,334.500000,,2013-07-23 18:11:00,
2013-07-23 10:23:00,58.0,53.0,-100.00,NW,304,2.0,10.0,85,-99.99,,,0.00,334.500000,,2013-07-23 18:23:00,
2013-07-23 11:02:00,58.0,53.0,-100.00,WNW,284,2.0,77.0,82,0.00,,,0.00,392.899994,,2013-07-23 19:02:00,
2013-07-23 11:12:00,58.0,53.0,-100.00,WNW,284,2.0,77.0,82,0.00,,,0.00,392.899994,,2013-07-23 19:12:00,
2013-07-23 11:22:00,58.0,53.0,-100.00,WNW,284,2.0,77.0,82,0.00,,,0.00,392.899994,,2013-07-23 19:22:00,
2013-07-23 11:55:00,60.0,53.0,-100.00,NW,326,2.0,11.0,77,0.00,,,0.00,431.899994,,2013-07-23 19:55:00,
2013-07-23 12:03:00,60.0,53.0,-100.00,NW,326,2.0,11.0,77,0.00,,,0.00,431.899994,,2013-07-23 20:03:00,
2013-07-23 12:12:00,60.0,53.0,-100.00,NW,326,2.0,11.0,77,0.00,,,0.00,431.899994,,2013-07-23 20:12:00,
2013-07-23 12:22:00,60.0,53.0,-100.00,NW,326,2.0,11.0,77,0.00,,,0.00,431.899994,,2013-07-23 20:22:00,
2013-07-23 12:58:00,63.0,55.0,-100.00,NNW,333,0.0,4.0,75,0.00,,,0.00,662.400024,,2013-07-23 20:58:00,
2013-07-23 13:13:00,63.0,55.0,-100.00,NNW,333,0.0,4.0,75,0.00,,,0.00,662.400024,,2013-07-23 21:13:00,
2013-07-23 13:22:00,63.0,55.0,-100.00,NNW,333,0.0,4.0,75,0.00,,,0.00,662.400024,,2013-07-23 21:22:00,
2013-07-23 13:56:00,68.0,56.0,-100.00,SE,131,1.0,5.0,65,0.00,,,0.00,790.799988,,2013-07-23 21:56:00,
2013-07-23 14:03:00,68.0,56.0,-100.00,SE,131,1.0,5.0,65,0.00,,,0.00,790.799988,,2013-07-23 22:03:00,
2013-07-23 14:11:00,68.0,56.0,-100.00,SE,131,1.0,5.0,65,0.00,,,0.00,790.799988,,2013-07-23 22:11:00,
2013-07-23 14:59:00,67.0,56.0,-100.00,WNW,293,0.0,4.0,67,0.00,,,0.00,794.799988,,2013-07-23 22:59:00,
2013-07-23 15:12:00,67.0,56.0,-100.00,WNW,293,0.0,4.0,67,0.00,,,0.00,794.799988,,2013-07-23 23:12:00,
2013-07-23 15:58:00,69.0,55.0,-100.00,ESE,114,2.0,8.0,60,0.00,,,0.00,801.799988,,2013-07-23 23:58:00,
2013-07-23 16:04:00,69.0,55.0,-100.00,ESE,114,2.0,8.0,60,0.00,,,0.00,801.799988,,2013-07-24 00:04:00,
2013-07-23 16:13:00,69.0,55.0,-100.00,ESE,114,2.0,8.0,60,0.00,,,0.00,801.799988,,2013-07-24 00:13:00,
2013-07-23 16:57:00,67.0,56.0,-100.00,SW,228,0.0,41.0,66,0.00,,,0.00,681.599976,,2013-07-24 00:57:00,
2013-07-23 17:03:00,67.0,56.0,-100.00,SW,228,0.0,41.0,66,0.00,,,0.00,681.599976,,2013-07-24 01:03:00,
2013-07-23 17:12:00,67.0,56.0,-100.00,SW,228,0.0,41.0,66,0.00,,,0.00,681.599976,,2013-07-24 01:12:00,
2013-07-23 17:22:00,67.0,56.0,-100.00,SW,228,0.0,41.0,66,0.00,,,0.00,681.599976,,2013-07-24 01:22:00,
2013-07-23 18:03:00,69.0,56.0,-100.00,WNW,289,3.0,7.0,62,0.00,,,0.00,662.700012,,2013-07-24 02:03:00,
2013-07-23 18:13:00,69.0,56.0,-100.00,WNW,289,3.0,7.0,62,0.00,,,0.00,662.700012,,2013-07-24 02:13:00,
2013-07-23 18:56:00,68.0,53.0,-100.00,WNW,284,2.0,10.0,59,0.00,,,0.00,532.599976,,2013-07-24 02:56:00,
2013-07-23 19:02:00,68.0,53.0,-100.00,WNW,284,2.0,10.0,59,0.00,,,0.00,532.599976,,2013-07-24 03:02:00,
2013-07-23 19:11:00,68.0,53.0,-100.00,WNW,284,2.0,10.0,59,0.00,,,0.00,532.599976,,2013-07-24 03:11:00,
2013-07-23 19:23:00,68.0,53.0,-100.00,WNW,284,2.0,10.0,59,0.00,,,0.00,532.599976,,2013-07-24 03:23:00,
2013-07-23 19:56:00,69.0,53.0,-100.00,WNW,283,0.0,10.0,57,0.00,,,0.00,397.500000,,2013-07-24 03:56:00,
2013-07-23 20:01:00,69.0,53.0,-100.00,WNW,283,0.0,10.0,57,0.00,,,0.00,397.500000,,2013-07-24 04:01:00,
2013-07-23 20:11:00,69.0,53.0,-100.00,WNW,283,0.0,10.0,57,0.00,,,0.00,397.500000,,2013-07-24 04:11:00,
2013-07-23 20:22:00,69.0,53.0,-100.00,WNW,283,0.0,10.0,57,0.00,,,0.00,397.500000,,2013-07-24 04:22:00,
2013-07-23 20:53:00,66.0,53.0,-100.00,WNW,285,4.0,9.0,62,0.00,,,0.00,263.899994,,2013-07-24 04:53:00,
2013-07-23 21:02:00,66.0,53.0,-100.00,WNW,285,4.0,9.0,62,0.00,,,0.00,263.899994,,2013-07-24 05:02:00,
2013-07-23 21:11:00,66.0,53.0,-100.00,WNW,285,4.0,9.0,62,0.00,,,0.00,263.899994,,2013-07-24 05:11:00,
2013-07-23 21:22:00,66.0,53.0,-100.00,WNW,285,4.0,9.0,62,0.00,,,0.00,263.899994,,2013-07-24 05:22:00,
2013-07-23 21:52:00,63.0,51.0,-100.00,WNW,290,2.0,6.0,66,0.00,,,0.00,138.500000,,2013-07-24 05:52:00,
2013-07-23 22:01:00,63.0,51.0,-100.00,WNW,290,2.0,6.0,66,0.00,,,0.00,138.500000,,2013-07-24 06:01:00,
2013-07-23 22:11:00,63.0,51.0,-100.00,WNW,290,2.0,6.0,66,0.00,,,0.00,138.500000,,2013-07-24 06:11:00,
2013-07-23 22:24:00,63.0,51.0,-100.00,WNW,290,2.0,6.0,66,0.00,,,0.00,138.500000,,2013-07-24 06:24:00,
2013-07-23 22:53:00,61.0,45.0,-100.00,WSW,247,4.0,4.0,57,0.00,,,0.00,15.800000,,2013-07-24 06:53:00,
2013-07-23 23:02:00,61.0,45.0,-100.00,WSW,247,4.0,4.0,57,0.00,,,0.00,15.800000,,2013-07-24 07:02:00,
2013-07-23 23:12:00,61.0,45.0,-100.00,WSW,247,4.0,4.0,57,0.00,,,0.00,15.800000,,2013-07-24 07:12:00,
2013-07-23 23:22:00,61.0,45.0,-100.00,WSW,247,4.0,4.0,57,0.00,,,0.00,15.800000,,2013-07-24 07:22:00,